Time;durP1;ratioP1;P1;durP2;ratioP2;P2;SDS_P1;SDS_P2;PMS_P1;PMS_P2;Temp;Humidity;BMP_temperature;BMP_pressure;BME280_temperature;BME280_humidity;BME280_pressure;Samples;Min_cycle;Max_cycle;Signal;HPM_P1;HPM_P2
2023/07/12 00:01:45;;;;;;;3.47;1.17;;;21.20;99.90;;;;;;7370318;32;20135;-55
2023/07/12 00:05:47;;;;;;;2.55;1.00;;;21.10;99.90;;;;;;7371874;32;20138;-56
2023/07/12 00:09:49;;;;;;;4.68;1.05;;;21.00;99.90;;;;;;7362947;32;20201;-56
2023/07/12 00:13:54;;;;;;;3.75;1.33;;;21.00;99.90;;;;;;7375685;32;20146;-55
2023/07/12 00:17:57;;;;;;;2.22;0.98;;;21.00;99.90;;;;;;7376401;32;20122;-56
2023/07/12 00:21:59;;;;;;;4.32;1.25;;;20.90;99.90;;;;;;7375474;32;20459;-56
2023/07/12 00:26:01;;;;;;;2.42;1.15;;;20.80;99.90;;;;;;7368007;32;20134;-56
2023/07/12 00:30:16;;;;;;;3.42;0.90;;;20.80;99.90;;;;;;7373728;32;20111;-56
2023/07/12 00:34:17;;;;;;;3.62;1.00;;;20.60;99.90;;;;;;7369119;32;20138;-56
2023/07/12 00:38:22;;;;;;;2.67;1.00;;;20.60;99.90;;;;;;7373370;32;20157;-55
2023/07/12 00:42:33;;;;;;;3.17;1.30;;;20.70;99.90;;;;;;7372078;32;20199;-55
2023/07/12 00:46:45;;;;;;;2.35;1.10;;;20.50;99.90;;;;;;7374993;32;20135;-56
2023/07/12 00:50:48;;;;;;;2.15;1.10;;;20.40;99.90;;;;;;7369596;32;20187;-56
2023/07/12 00:54:54;;;;;;;3.65;1.30;;;20.40;99.90;;;;;;7367331;32;20177;-55
2023/07/12 00:59:04;;;;;;;4.22;1.10;;;20.40;99.90;;;;;;7360997;32;20122;-56
2023/07/12 01:03:07;;;;;;;3.85;1.30;;;20.40;99.90;;;;;;7364135;32;20111;-56
2023/07/12 01:07:10;;;;;;;2.83;1.10;;;20.30;99.90;;;;;;7369318;32;20103;-56
2023/07/12 01:11:14;;;;;;;3.42;1.10;;;20.30;99.90;;;;;;7372848;32;20134;-56
2023/07/12 01:15:16;;;;;;;3.15;1.02;;;20.30;99.90;;;;;;7366188;32;20103;-56
2023/07/12 01:19:18;;;;;;;2.62;1.00;;;20.20;99.90;;;;;;7368063;32;20139;-56
2023/07/12 01:23:20;;;;;;;2.50;1.20;;;20.10;99.90;;;;;;7370876;32;20115;-56
2023/07/12 01:27:24;;;;;;;2.15;1.05;;;20.00;99.90;;;;;;7371712;32;20095;-55
2023/07/12 01:31:27;;;;;;;1.67;1.12;;;19.90;99.90;;;;;;7363541;32;20141;-56
2023/07/12 01:35:30;;;;;;;2.20;1.15;;;19.70;99.90;;;;;;7365888;32;20114;-56
2023/07/12 01:39:35;;;;;;;2.08;1.12;;;19.60;99.90;;;;;;7362018;32;20115;-56
2023/07/12 01:43:37;;;;;;;1.80;0.90;;;19.60;99.90;;;;;;7373021;32;20557;-56
2023/07/12 01:47:39;;;;;;;3.50;1.23;;;19.60;99.90;;;;;;7362006;32;20136;-56
2023/07/12 01:51:41;;;;;;;2.22;0.90;;;19.60;99.90;;;;;;7368328;32;20128;-55
2023/07/12 01:55:44;;;;;;;4.57;1.08;;;19.60;99.90;;;;;;7363534;32;20532;-55
2023/07/12 01:59:45;;;;;;;3.80;1.10;;;19.60;99.90;;;;;;7373434;32;20198;-56
2023/07/12 02:03:47;;;;;;;1.55;0.98;;;19.60;99.90;;;;;;7372024;32;20119;-55
2023/07/12 02:07:52;;;;;;;3.90;1.10;;;19.50;99.90;;;;;;7370761;32;20163;-55
2023/07/12 02:11:54;;;;;;;2.37;1.23;;;19.40;99.90;;;;;;7374354;32;20110;-56
2023/07/12 02:15:56;;;;;;;2.78;1.05;;;19.40;99.90;;;;;;7375698;32;20772;-55
2023/07/12 02:19:58;;;;;;;2.65;1.10;;;19.50;99.90;;;;;;7362989;32;20481;-55
2023/07/12 02:24:00;;;;;;;3.05;1.42;;;19.50;99.90;;;;;;7373783;32;20103;-54
2023/07/12 02:28:02;;;;;;;2.28;1.35;;;19.50;99.90;;;;;;7376366;32;20442;-56
2023/07/12 02:32:04;;;;;;;5.40;1.33;;;19.50;99.90;;;;;;7363158;32;20583;-55
2023/07/12 02:36:06;;;;;;;3.50;1.35;;;19.40;99.90;;;;;;7364423;32;20421;-56
2023/07/12 02:40:09;;;;;;;4.20;1.73;;;19.40;99.90;;;;;;7375822;32;20111;-55
2023/07/12 02:44:11;;;;;;;3.42;1.20;;;19.40;99.90;;;;;;7367399;32;20177;-55
2023/07/12 02:48:13;;;;;;;3.87;1.87;;;19.30;99.90;;;;;;7366777;32;20115;-55
2023/07/12 02:52:15;;;;;;;6.53;1.70;;;19.30;99.90;;;;;;7363842;32;20618;-55
2023/07/12 02:56:17;;;;;;;3.45;1.62;;;19.10;99.90;;;;;;7363069;32;20311;-55
2023/07/12 03:00:21;;;;;;;4.75;1.83;;;19.00;99.90;;;;;;7374416;32;20156;-55
2023/07/12 03:04:23;;;;;;;3.47;1.67;;;19.00;99.90;;;;;;7377944;32;20579;-55
2023/07/12 03:08:26;;;;;;;4.07;1.77;;;18.80;99.90;;;;;;7373888;32;20136;-55
2023/07/12 03:12:27;;;;;;;4.40;1.42;;;18.80;99.90;;;;;;7378049;32;20576;-55
2023/07/12 03:16:31;;;;;;;4.37;1.50;;;18.60;99.90;;;;;;7374885;32;20542;-55
2023/07/12 03:20:33;;;;;;;3.12;1.40;;;18.50;99.90;;;;;;7370519;32;20202;-55
2023/07/12 03:24:35;;;;;;;5.97;1.67;;;18.30;99.90;;;;;;7371880;32;20148;-55
2023/07/12 03:28:37;;;;;;;5.85;1.67;;;17.90;99.90;;;;;;7373686;32;20169;-55
2023/07/12 03:32:39;;;;;;;4.75;1.75;;;17.70;99.90;;;;;;7375550;32;20199;-55
2023/07/12 03:36:40;;;;;;;5.47;1.58;;;17.60;99.90;;;;;;7369309;32;20182;-55
2023/07/12 03:40:45;;;;;;;4.78;1.45;;;17.50;99.90;;;;;;7377702;32;20123;-55
2023/07/12 03:44:46;;;;;;;4.20;1.60;;;17.40;99.90;;;;;;7363538;32;20225;-55
2023/07/12 03:48:48;;;;;;;4.50;1.40;;;17.30;99.90;;;;;;7376890;32;20111;-55
2023/07/12 03:52:50;;;;;;;3.42;1.30;;;17.30;99.90;;;;;;7371682;32;20282;-55
2023/07/12 03:56:52;;;;;;;4.57;1.65;;;17.20;99.90;;;;;;7376500;32;20207;-55
2023/07/12 04:00:55;;;;;;;3.42;1.70;;;17.20;99.90;;;;;;7373312;32;20589;-55
2023/07/12 04:04:57;;;;;;;3.90;1.50;;;17.20;99.90;;;;;;7382327;32;20131;-56
2023/07/12 04:08:59;;;;;;;3.28;1.50;;;17.10;99.90;;;;;;7375012;32;20106;-55
2023/07/12 04:13:02;;;;;;;3.58;1.27;;;17.20;99.90;;;;;;7375537;32;20493;-55
2023/07/12 04:17:03;;;;;;;4.25;1.58;;;17.10;99.90;;;;;;7376941;32;20107;-55
2023/07/12 04:21:05;;;;;;;3.40;1.15;;;17.10;99.90;;;;;;7376730;32;20216;-55
2023/07/12 04:25:09;;;;;;;2.87;1.20;;;17.00;99.90;;;;;;7368659;32;20203;-55
2023/07/12 04:29:11;;;;;;;3.03;1.10;;;17.10;99.90;;;;;;7370164;32;20192;-55
2023/07/12 04:33:13;;;;;;;3.37;1.35;;;17.00;99.90;;;;;;7375143;32;20121;-55
2023/07/12 04:37:17;;;;;;;4.28;1.15;;;16.90;99.90;;;;;;7367050;32;20699;-55
2023/07/12 04:41:19;;;;;;;3.40;1.00;;;17.00;99.90;;;;;;7374058;32;20099;-55
2023/07/12 04:45:21;;;;;;;2.80;1.20;;;17.00;99.90;;;;;;7363467;32;20139;-55
2023/07/12 04:49:23;;;;;;;2.95;1.12;;;17.20;99.90;;;;;;7366051;32;20103;-56
2023/07/12 04:53:24;;;;;;;2.95;1.00;;;17.20;99.90;;;;;;7380589;32;20278;-57
2023/07/12 04:57:26;;;;;;;2.75;1.10;;;17.20;99.90;;;;;;7370795;32;20186;-56
2023/07/12 05:01:29;;;;;;;3.03;1.10;;;17.30;99.90;;;;;;7374373;32;20208;-57
2023/07/12 05:05:31;;;;;;;2.65;0.95;;;17.50;99.90;;;;;;7375569;32;20111;-57
2023/07/12 05:09:33;;;;;;;2.47;1.08;;;17.60;99.90;;;;;;7371773;32;20119;-56
2023/07/12 05:13:34;;;;;;;2.80;1.20;;;17.50;99.90;;;;;;7370901;32;20103;-56
2023/07/12 05:17:39;;;;;;;3.58;0.93;;;17.50;99.90;;;;;;7377596;32;20255;-57
2023/07/12 05:21:40;;;;;;;2.47;0.93;;;17.50;99.90;;;;;;7372393;32;20158;-56
2023/07/12 05:25:53;;;;;;;2.97;1.10;;;17.50;99.90;;;;;;7381419;32;20111;-56
2023/07/12 05:29:55;;;;;;;1.65;1.00;;;17.50;99.90;;;;;;7373511;32;20582;-56
2023/07/12 05:33:57;;;;;;;3.30;1.20;;;17.50;99.90;;;;;;7372417;32;20154;-55
2023/07/12 05:37:58;;;;;;;3.53;0.93;;;17.40;99.90;;;;;;7368046;32;20729;-55
2023/07/12 05:42:00;;;;;;;3.15;1.20;;;17.50;99.90;;;;;;7378889;32;20106;-56
2023/07/12 05:46:03;;;;;;;3.55;1.40;;;17.50;99.90;;;;;;7378038;32;20115;-55
2023/07/12 05:50:09;;;;;;;2.17;1.00;;;17.40;99.90;;;;;;7365714;32;20221;-55
2023/07/12 05:54:12;;;;;;;3.55;1.30;;;17.40;99.90;;;;;;7378740;32;20182;-56
2023/07/12 05:58:14;;;;;;;2.37;1.05;;;17.40;99.90;;;;;;7379676;32;20602;-55
2023/07/12 06:02:15;;;;;;;3.83;1.30;;;17.50;99.90;;;;;;7365965;32;20129;-56
2023/07/12 06:06:17;;;;;;;4.07;1.33;;;17.50;99.90;;;;;;7377082;32;20457;-56
2023/07/12 06:10:19;;;;;;;2.62;1.20;;;17.50;99.90;;;;;;7366262;32;20118;-55
2023/07/12 06:14:21;;;;;;;2.45;1.08;;;17.50;99.90;;;;;;7372537;32;20153;-55
2023/07/12 06:18:24;;;;;;;5.35;1.40;;;17.50;99.90;;;;;;7375691;32;20134;-55
2023/07/12 06:22:26;;;;;;;3.97;1.30;;;17.50;99.90;;;;;;7373100;32;20186;-56
2023/07/12 06:26:28;;;;;;;7.30;1.40;;;17.80;99.90;;;;;;7374830;32;20110;-56
2023/07/12 06:30:30;;;;;;;3.55;1.30;;;18.20;99.90;;;;;;7379932;32;20675;-56
2023/07/12 06:34:32;;;;;;;5.60;1.40;;;18.50;99.90;;;;;;7378689;32;20517;-56
2023/07/12 06:38:34;;;;;;;3.25;1.42;;;18.60;99.90;;;;;;7376939;32;20176;-56
2023/07/12 06:42:36;;;;;;;6.28;1.60;;;18.30;99.90;;;;;;7377628;32;20107;-56
2023/07/12 06:46:37;;;;;;;5.12;1.50;;;18.30;99.90;;;;;;7385172;32;20107;-56
2023/07/12 06:50:40;;;;;;;2.55;1.20;;;18.30;99.90;;;;;;7378796;32;20088;-56
2023/07/12 06:54:43;;;;;;;3.12;1.65;;;18.50;99.90;;;;;;7381648;32;20199;-56
2023/07/12 06:58:44;;;;;;;2.55;1.23;;;18.60;99.90;;;;;;7368628;32;20543;-56
2023/07/12 07:02:50;;;;;;;3.17;1.45;;;19.10;99.90;;;;;;7382945;32;20137;-56
2023/07/12 07:06:52;;;;;;;4.32;1.40;;;20.20;99.90;;;;;;7370222;32;20194;-57
2023/07/12 07:10:54;;;;;;;6.72;1.20;;;20.70;99.90;;;;;;7374439;32;20178;-57
2023/07/12 07:14:55;;;;;;;5.05;1.50;;;20.80;99.90;;;;;;7384187;32;20524;-57
2023/07/12 07:18:57;;;;;;;5.78;1.35;;;20.70;99.90;;;;;;7384251;32;20276;-58
2023/07/12 07:23:00;;;;;;;3.87;1.30;;;20.40;99.90;;;;;;7379901;32;20548;-57
2023/07/12 07:27:02;;;;;;;5.93;1.67;;;20.30;99.90;;;;;;7381336;32;20585;-57
2023/07/12 07:31:03;;;;;;;3.33;1.50;;;20.00;99.90;;;;;;7374629;32;20557;-57
2023/07/12 07:35:06;;;;;;;5.45;1.27;;;19.70;99.90;;;;;;7379789;32;20524;-59
2023/07/12 07:39:08;;;;;;;6.07;1.30;;;19.60;99.90;;;;;;7377616;32;20544;-57
2023/07/12 07:43:13;;;;;;;5.72;1.45;;;19.60;99.90;;;;;;7369281;32;20130;-58
2023/07/12 07:47:15;;;;;;;3.42;1.00;;;19.70;99.90;;;;;;7374105;32;20338;-57
2023/07/12 07:51:17;;;;;;;2.78;1.00;;;19.50;99.90;;;;;;7374435;32;20286;-58
2023/07/12 07:55:20;;;;;;;5.65;1.40;;;19.10;99.90;;;;;;7374930;32;20110;-58
2023/07/12 07:59:22;;;;;;;2.60;0.98;;;19.20;99.90;;;;;;7383059;32;20127;-58
2023/07/12 08:03:24;;;;;;;5.22;1.23;;;19.50;99.90;;;;;;7382961;32;20129;-58
2023/07/12 08:07:26;;;;;;;3.62;1.15;;;19.80;99.90;;;;;;7381846;32;20585;-58
2023/07/12 08:11:28;;;;;;;3.90;1.35;;;20.30;99.90;;;;;;7379666;32;20414;-58
2023/07/12 08:15:31;;;;;;;4.28;1.20;;;20.70;99.90;;;;;;7375453;32;20172;-58
2023/07/12 08:19:33;;;;;;;5.07;1.37;;;21.10;99.90;;;;;;7379253;32;20730;-58
2023/07/12 08:23:35;;;;;;;7.00;1.05;;;21.70;99.90;;;;;;7378133;32;20322;-58
2023/07/12 08:27:37;;;;;;;4.57;1.23;;;22.20;99.90;;;;;;7380726;32;20134;-56
2023/07/12 08:31:39;;;;;;;3.90;0.80;;;22.60;99.90;;;;;;7378710;32;20568;-58
2023/07/12 08:35:43;;;;;;;5.32;1.17;;;22.50;99.90;;;;;;7371830;32;20095;-56
2023/07/12 08:39:50;;;;;;;6.00;1.27;;;22.30;99.90;;;;;;7371017;32;20111;-58
2023/07/12 08:43:52;;;;;;;4.07;1.00;;;22.40;99.90;;;;;;7379704;32;20505;-58
2023/07/12 08:48:01;;;;;;;2.75;1.00;;;22.80;99.90;;;;;;7369066;32;20520;-58
2023/07/12 08:52:05;;;;;;;8.48;1.20;;;22.30;99.90;;;;;;7366441;32;20138;-58
2023/07/12 08:56:12;;;;;;;7.12;1.30;;;21.80;99.90;;;;;;7381146;32;20244;-58
2023/07/12 09:00:19;;;;;;;;;;;21.80;99.90;;;;;;7380329;32;20377;-57
2023/07/12 09:04:31;;;;;;;3.67;1.10;;;21.40;99.90;;;;;;7366453;32;20191;-57
2023/07/12 09:08:39;;;;;;;5.20;1.05;;;20.90;99.90;;;;;;7379167;32;20131;-57
2023/07/12 09:12:41;;;;;;;4.45;1.23;;;20.90;99.90;;;;;;7370950;32;20575;-57
2023/07/12 09:16:47;;;;;;;3.45;1.10;;;21.40;99.90;;;;;;7378433;32;20133;-57
2023/07/12 09:20:53;;;;;;;4.68;1.30;;;21.70;99.90;;;;;;7372031;32;20110;-57
2023/07/12 09:24:56;;;;;;;5.32;1.05;;;22.20;99.90;;;;;;7375645;32;20149;-57
2023/07/12 09:29:04;;;;;;;7.07;1.30;;;22.00;99.90;;;;;;7379045;32;20110;-58
2023/07/12 09:33:06;;;;;;;6.65;1.25;;;21.60;99.90;;;;;;7378330;32;20106;-56
2023/07/12 09:37:21;;;;;;;6.37;1.40;;;21.60;99.90;;;;;;7381318;32;20621;-56
2023/07/12 09:41:24;;;;;;;6.12;1.10;;;22.80;99.90;;;;;;7365788;32;20119;-58
2023/07/12 09:45:34;;;;;;;3.53;1.15;;;22.90;99.90;;;;;;7362326;32;20175;-56
2023/07/12 09:49:57;;;;;;;4.97;1.27;;;22.10;99.90;;;;;;7371364;32;20126;-57
2023/07/12 09:54:10;;;;;;;6.20;1.10;;;22.10;99.90;;;;;;7371167;32;20123;-57
2023/07/12 09:58:33;;;;;;;4.90;1.12;;;22.90;99.90;;;;;;7376444;32;20584;-57
2023/07/12 10:02:59;;;;;;;5.75;1.20;;;23.50;99.90;;;;;;7370188;32;20107;-57
2023/07/12 10:07:17;;;;;;;2.53;0.88;;;22.90;99.90;;;;;;7376080;32;20374;-57
2023/07/12 10:11:31;;;;;;;4.75;1.20;;;23.00;99.90;;;;;;7374802;32;20107;-57
2023/07/12 10:15:37;;;;;;;2.58;0.88;;;23.80;99.90;;;;;;7373147;32;20133;-57
2023/07/12 10:19:41;;;;;;;5.00;1.00;;;23.80;99.90;;;;;;7367946;32;20252;-58
2023/07/12 10:23:47;;;;;;;5.55;1.20;;;24.10;99.90;;;;;;7364258;32;20305;-58
2023/07/12 10:28:22;;;;;;;6.32;1.65;;;23.70;99.90;;;;;;7365400;32;20102;-57
2023/07/12 10:32:49;;;;;;;3.12;1.10;;;23.20;99.90;;;;;;7349632;32;20811;-57
2023/07/12 10:36:57;;;;;;;5.65;0.80;;;22.90;99.90;;;;;;7336741;32;20139;-57
2023/07/12 10:41:03;;;;;;;3.62;1.00;;;23.30;99.90;;;;;;7370348;32;20124;-57
2023/07/12 10:45:07;;;;;;;4.40;0.82;;;23.30;99.90;;;;;;7371334;32;20133;-57
2023/07/12 10:49:16;;;;;;;3.62;0.90;;;24.00;99.90;;;;;;7369176;32;20252;-56
2023/07/12 10:53:26;;;;;;;3.08;0.80;;;24.30;99.90;;;;;;7370586;32;20226;-56
2023/07/12 10:57:51;;;;;;;5.68;1.10;;;24.60;99.90;;;;;;7371570;32;20492;-56
2023/07/12 11:01:54;;;;;;;4.32;1.00;;;25.10;99.90;;;;;;7377677;32;20102;-56
2023/07/12 11:06:23;;;;;;;2.92;0.82;;;24.10;99.90;;;;;;7372944;32;20122;-57
2023/07/12 11:10:26;;;;;;;5.20;1.00;;;23.30;99.90;;;;;;7371077;32;20106;-57
2023/07/12 11:14:37;;;;;;;5.80;1.12;;;23.20;99.90;;;;;;7371271;32;20190;-57
2023/07/12 11:18:49;;;;;;;5.30;0.88;;;23.80;99.90;;;;;;7378706;32;20481;-57
2023/07/12 11:22:52;;;;;;;3.72;0.57;;;24.30;99.90;;;;;;7370486;32;20131;-57
2023/07/12 11:26:57;;;;;;;5.30;0.80;;;24.40;99.90;;;;;;7372465;32;20572;-57
2023/07/12 11:31:20;;;;;;;3.62;0.90;;;25.00;99.90;;;;;;7367554;32;20104;-57
2023/07/12 11:35:43;;;;;;;4.50;0.90;;;25.30;99.90;;;;;;7379927;32;20146;-57
2023/07/12 11:39:46;;;;;;;4.47;1.20;;;25.40;99.90;;;;;;7377009;32;20102;-57
2023/07/12 11:44:13;;;;;;;3.72;0.90;;;25.20;99.90;;;;;;7379343;32;20096;-57
2023/07/12 11:48:15;;;;;;;5.67;1.10;;;24.60;99.90;;;;;;7370142;32;20194;-57
2023/07/12 11:52:17;;;;;;;7.28;1.02;;;23.80;99.90;;;;;;7376862;32;20122;-57
2023/07/12 11:56:19;;;;;;;5.53;0.95;;;23.30;99.90;;;;;;7380828;32;20150;-57
2023/07/12 12:00:24;;;;;;;3.95;1.02;;;23.30;99.90;;;;;;7382508;32;20203;-57
2023/07/12 12:04:30;;;;;;;4.62;1.10;;;23.00;99.90;;;;;;7381761;32;20272;-57
2023/07/12 12:08:33;;;;;;;6.28;1.00;;;23.30;99.90;;;;;;7382363;32;20111;-57
2023/07/12 12:12:34;;;;;;;4.47;0.80;;;24.00;99.90;;;;;;7376982;32;20746;-57
2023/07/12 12:16:37;;;;;;;3.65;1.00;;;24.20;99.90;;;;;;7380281;32;20125;-57
2023/07/12 12:20:39;;;;;;;6.45;0.85;;;24.20;99.90;;;;;;7373543;32;20663;-57
2023/07/12 12:24:47;;;;;;;7.07;1.20;;;24.10;99.90;;;;;;7372703;32;20160;-56
2023/07/12 12:28:59;;;;;;;3.40;0.62;;;24.10;99.90;;;;;;7381953;32;20292;-56
2023/07/12 12:33:24;;;;;;;2.90;0.80;;;24.20;99.90;;;;;;7380075;32;20385;-57
2023/07/12 12:37:29;;;;;;;5.57;0.85;;;25.10;99.90;;;;;;7368129;32;20444;-57
2023/07/12 12:41:37;;;;;;;5.12;0.88;;;25.40;99.90;;;;;;7371404;32;20488;-57
2023/07/12 12:45:39;;;;;;;6.07;0.90;;;24.70;99.90;;;;;;7381042;32;20134;-57
2023/07/12 12:49:43;;;;;;;3.15;0.70;;;24.60;99.90;;;;;;7373735;32;20211;-57
2023/07/12 12:53:48;;;;;;;3.67;0.75;;;24.30;99.90;;;;;;7379125;32;20123;-56
2023/07/12 12:57:57;;;;;;;3.67;0.88;;;24.60;99.90;;;;;;7375726;32;20240;-57
2023/07/12 13:02:02;;;;;;;3.78;0.82;;;25.20;99.90;;;;;;7375479;32;20217;-57
2023/07/12 13:06:17;;;;;;;3.72;1.10;;;25.70;99.90;;;;;;7379158;32;20107;-57
2023/07/12 13:10:23;;;;;;;4.22;1.20;;;25.60;99.90;;;;;;7374653;32;20111;-57
2023/07/12 13:14:45;;;;;;;4.30;0.85;;;25.20;99.80;;;;;;7363871;32;20147;-57
2023/07/12 13:18:49;;;;;;;6.28;0.93;;;25.20;99.90;;;;;;7365036;32;20181;-57
2023/07/12 13:23:11;;;;;;;5.20;0.93;;;24.60;99.90;;;;;;7374923;32;20172;-57
2023/07/12 13:27:31;;;;;;;5.90;0.80;;;23.80;99.90;;;;;;7378403;32;20149;-57
2023/07/12 13:31:33;;;;;;;5.05;0.82;;;24.30;99.90;;;;;;7369090;32;20103;-57
2023/07/12 13:35:35;;;;;;;2.60;0.60;;;24.60;98.20;;;;;;7377922;32;20110;-57
2023/07/12 13:39:39;;;;;;;6.15;0.70;;;25.10;97.50;;;;;;7378491;32;20202;-57
2023/07/12 13:43:46;;;;;;;3.72;0.70;;;25.20;95.20;;;;;;7375286;32;20260;-57
2023/07/12 13:48:19;;;;;;;5.45;0.80;;;25.20;94.60;;;;;;7374503;32;20548;-57
2023/07/12 13:52:26;;;;;;;3.00;0.50;;;25.00;92.40;;;;;;7372238;32;20630;-57
2023/07/12 13:56:28;;;;;;;;;;;25.60;92.80;;;;;;7372710;32;20136;-57
2023/07/12 14:00:32;;;;;;;1.65;0.57;;;26.00;90.80;;;;;;7371131;32;20730;-57
2023/07/12 14:04:57;;;;;;;1.70;0.50;;;26.20;90.00;;;;;;7376967;32;20532;-56
2023/07/12 14:09:19;;;;;;;4.37;0.73;;;25.90;88.10;;;;;;7371145;32;20103;-57
2023/07/12 14:13:21;;;;;;;9.80;0.75;;;25.90;90.10;;;;;;7369404;32;20139;-57
2023/07/12 14:17:28;;;;;;;3.45;0.70;;;25.80;87.00;;;;;;7377967;32;20448;-58
2023/07/12 14:21:30;;;;;;;2.05;0.57;;;26.20;88.50;;;;;;7370404;32;20414;-58
2023/07/12 14:25:33;;;;;;;3.35;0.60;;;26.20;83.60;;;;;;7371735;32;20119;-57
2023/07/12 14:29:35;;;;;;;4.37;0.90;;;26.60;80.90;;;;;;7368777;32;20103;-58
2023/07/12 14:33:39;;;;;;;3.40;0.65;;;26.60;82.00;;;;;;7371663;32;20204;-58
2023/07/12 14:37:42;;;;;;;3.72;0.68;;;26.50;83.00;;;;;;7372650;32;20138;-58
2023/07/12 14:41:44;;;;;;;3.25;0.60;;;26.50;84.30;;;;;;7368755;32;20161;-58
2023/07/12 14:45:46;;;;;;;6.40;0.80;;;26.50;80.50;;;;;;7379677;32;20190;-58
2023/07/12 14:49:49;;;;;;;1.73;0.57;;;26.50;80.40;;;;;;7371576;32;20153;-58
2023/07/12 14:53:52;;;;;;;3.53;0.60;;;26.10;81.60;;;;;;7381120;32;20293;-58
2023/07/12 14:57:53;;;;;;;4.78;0.80;;;26.60;80.30;;;;;;7376598;32;20133;-58
2023/07/12 15:02:27;;;;;;;3.58;0.50;;;26.80;78.50;;;;;;7378610;32;20251;-57
2023/07/12 15:06:29;;;;;;;3.00;0.80;;;26.30;76.00;;;;;;7368341;32;20132;-57
2023/07/12 15:10:31;;;;;;;2.47;0.60;;;26.70;76.90;;;;;;7367413;32;20592;-56
2023/07/12 15:14:33;;;;;;;4.35;0.70;;;27.00;78.00;;;;;;7379057;32;20114;-56
2023/07/12 15:18:35;;;;;;;3.45;0.90;;;27.00;79.10;;;;;;7372021;32;20478;-56
2023/07/12 15:22:40;;;;;;;3.95;0.88;;;27.30;76.50;;;;;;7376741;32;20193;-56
2023/07/12 15:26:41;;;;;;;5.35;0.90;;;27.00;76.20;;;;;;7369895;32;20127;-56
2023/07/12 15:30:44;;;;;;;3.15;0.80;;;26.50;77.70;;;;;;7381774;32;20129;-56
2023/07/12 15:34:46;;;;;;;4.28;0.90;;;25.90;79.00;;;;;;7369609;32;20532;-56
2023/07/12 15:38:50;;;;;;;2.87;0.80;;;25.60;79.70;;;;;;7363892;32;20134;-56
2023/07/12 15:42:52;;;;;;;3.70;0.60;;;25.30;79.20;;;;;;7377561;32;20132;-57
2023/07/12 15:46:53;;;;;;;2.53;0.65;;;25.10;79.40;;;;;;7376169;32;20268;-58
2023/07/12 15:51:11;;;;;;;2.20;0.68;;;25.10;82.30;;;;;;7373973;32;20114;-56
2023/07/12 15:55:15;;;;;;;2.70;0.80;;;25.10;84.10;;;;;;7368605;32;20130;-56
2023/07/12 15:59:18;;;;;;;4.30;0.98;;;24.90;79.70;;;;;;7375845;32;20107;-57
2023/07/12 16:03:36;;;;;;;3.22;0.90;;;24.90;81.80;;;;;;7375604;32;20667;-57
2023/07/12 16:07:37;;;;;;;4.68;1.50;;;24.70;83.60;;;;;;7377210;32;20110;-57
2023/07/12 16:11:43;;;;;;;7.40;0.95;;;24.90;84.10;;;;;;7372322;32;20554;-57
2023/07/12 16:15:46;;;;;;;3.67;0.75;;;24.80;83.30;;;;;;7377681;32;20125;-56
2023/07/12 16:19:49;;;;;;;2.97;0.80;;;24.60;82.70;;;;;;7377851;32;20449;-57
2023/07/12 16:23:52;;;;;;;5.75;1.00;;;24.60;85.10;;;;;;7368447;32;20240;-56
2023/07/12 16:27:54;;;;;;;4.00;0.80;;;24.20;84.00;;;;;;7370464;32;20104;-57
2023/07/12 16:31:55;;;;;;;4.53;0.93;;;24.00;85.60;;;;;;7372733;32;20123;-56
2023/07/12 16:35:57;;;;;;;3.78;1.20;;;24.00;86.20;;;;;;7370725;32;20107;-57
2023/07/12 16:39:59;;;;;;;2.85;0.85;;;24.10;83.20;;;;;;7371527;32;20151;-56
2023/07/12 16:44:01;;;;;;;4.97;0.80;;;24.20;82.80;;;;;;7368175;32;20115;-56
2023/07/12 16:48:04;;;;;;;1.98;0.50;;;24.20;81.50;;;;;;7369637;32;20119;-56
2023/07/12 16:52:12;;;;;;;5.00;0.73;;;24.10;83.30;;;;;;7367968;32;20091;-56
2023/07/12 16:56:17;;;;;;;4.72;0.70;;;24.20;87.10;;;;;;7361257;32;20131;-56
2023/07/12 17:00:19;;;;;;;4.45;1.12;;;24.20;88.10;;;;;;7373176;32;20123;-56
2023/07/12 17:04:23;;;;;;;1.83;0.80;;;24.10;88.90;;;;;;7368306;32;20688;-56
2023/07/12 17:08:27;;;;;;;5.87;1.10;;;24.10;88.50;;;;;;7372780;32;20119;-56
2023/07/12 17:12:31;;;;;;;6.18;0.70;;;24.20;87.10;;;;;;7366595;32;20505;-56
2023/07/12 17:16:33;;;;;;;4.10;0.70;;;24.20;86.10;;;;;;7365275;32;20718;-56
2023/07/12 17:20:35;;;;;;;4.12;1.10;;;24.10;89.30;;;;;;7373305;32;20107;-56
2023/07/12 17:24:37;;;;;;;4.85;1.10;;;23.90;90.70;;;;;;7365845;32;20111;-56
2023/07/12 17:28:39;;;;;;;5.20;1.00;;;23.80;92.10;;;;;;7376966;32;20130;-56
2023/07/12 17:32:41;;;;;;;4.28;1.20;;;23.30;93.90;;;;;;7371357;32;20696;-56
2023/07/12 17:36:44;;;;;;;7.05;1.25;;;23.20;94.10;;;;;;7373115;32;20411;-56
2023/07/12 17:40:52;;;;;;;5.82;1.20;;;23.00;94.50;;;;;;7362620;32;20124;-56
2023/07/12 17:44:55;;;;;;;2.92;1.20;;;23.00;95.30;;;;;;7362372;32;20575;-56
2023/07/12 17:48:57;;;;;;;3.90;0.93;;;22.80;96.50;;;;;;7364034;32;20115;-56
2023/07/12 17:52:59;;;;;;;5.12;1.15;;;22.60;97.60;;;;;;7371700;32;20506;-57
2023/07/12 17:57:00;;;;;;;4.80;1.25;;;22.60;98.00;;;;;;7372799;32;20722;-57
2023/07/12 18:01:04;;;;;;;6.35;1.20;;;22.50;98.30;;;;;;7363543;32;20119;-57
2023/07/12 18:05:24;;;;;;;2.75;0.90;;;22.40;99.90;;;;;;7375522;32;20551;-57
2023/07/12 18:09:25;;;;;;;3.45;0.95;;;22.30;99.90;;;;;;7365587;32;20528;-57
2023/07/12 18:13:32;;;;;;;6.45;1.33;;;22.20;99.90;;;;;;7366282;32;20507;-57
2023/07/12 18:17:33;;;;;;;5.50;1.30;;;22.10;99.90;;;;;;7376539;32;20511;-57
2023/07/12 18:21:36;;;;;;;6.37;1.50;;;22.10;99.90;;;;;;7375166;32;20519;-57
2023/07/12 18:25:42;;;;;;;3.25;0.98;;;22.10;99.90;;;;;;7368225;32;20167;-57
2023/07/12 18:29:44;;;;;;;3.80;1.20;;;22.10;99.90;;;;;;7364232;32;20103;-57
2023/07/12 18:33:47;;;;;;;5.37;1.83;;;22.10;99.90;;;;;;7368113;32;20520;-57
2023/07/12 18:37:49;;;;;;;5.07;1.85;;;22.10;99.90;;;;;;7360713;32;20111;-57
2023/07/12 18:41:52;;;;;;;6.20;2.00;;;22.00;99.90;;;;;;7360434;32;20145;-57
2023/07/12 18:45:54;;;;;;;10.15;1.83;;;22.00;99.90;;;;;;7372903;32;20127;-57
2023/07/12 18:49:56;;;;;;;11.35;1.98;;;21.90;99.90;;;;;;7375565;32;20095;-58
2023/07/12 18:53:59;;;;;;;8.20;2.10;;;21.80;99.90;;;;;;7366822;32;20247;-57
2023/07/12 18:58:02;;;;;;;5.90;1.48;;;21.70;99.90;;;;;;7370272;32;20217;-57
2023/07/12 19:02:16;;;;;;;5.97;1.40;;;21.70;99.90;;;;;;7374840;32;20570;-56
2023/07/12 19:06:24;;;;;;;4.20;1.23;;;21.70;99.90;;;;;;7370084;32;20137;-57
2023/07/12 19:10:28;;;;;;;4.95;1.12;;;21.60;99.90;;;;;;7371425;32;20126;-56
2023/07/12 19:14:30;;;;;;;4.65;1.42;;;21.40;99.90;;;;;;7370663;32;20107;-57
2023/07/12 19:18:32;;;;;;;6.07;1.45;;;21.40;99.90;;;;;;7360599;32;20184;-57
2023/07/12 19:22:34;;;;;;;7.80;2.03;;;21.20;99.90;;;;;;7367470;32;20590;-57
2023/07/12 19:26:37;;;;;;;6.10;1.70;;;21.10;99.90;;;;;;7369157;32;20103;-57
2023/07/12 19:30:39;;;;;;;4.60;1.42;;;21.00;99.90;;;;;;7361221;32;20107;-57
2023/07/12 19:34:43;;;;;;;7.90;1.65;;;20.90;99.90;;;;;;7365784;32;20190;-57
2023/07/12 19:38:45;;;;;;;4.75;1.20;;;20.70;99.90;;;;;;7366951;32;20129;-56
2023/07/12 19:42:48;;;;;;;5.53;1.45;;;20.60;99.90;;;;;;7371880;32;20442;-56
2023/07/12 19:46:51;;;;;;;4.55;1.52;;;20.50;99.90;;;;;;7377571;32;20103;-57
2023/07/12 19:50:53;;;;;;;4.72;1.23;;;20.50;99.90;;;;;;7377906;32;20509;-56
2023/07/12 19:54:55;;;;;;;4.05;1.37;;;20.40;99.90;;;;;;7373040;32;20264;-58
2023/07/12 19:58:59;;;;;;;8.50;1.50;;;20.20;99.90;;;;;;7373106;32;20480;-56
2023/07/12 20:03:01;;;;;;;4.28;1.20;;;20.10;99.90;;;;;;7376055;32;20169;-55
2023/07/12 20:07:03;;;;;;;3.87;1.27;;;20.00;99.90;;;;;;7369640;32;20510;-57
2023/07/12 20:11:14;;;;;;;5.30;1.35;;;19.90;99.90;;;;;;7372863;32;20500;-56
2023/07/12 20:15:16;;;;;;;4.18;1.42;;;19.80;99.90;;;;;;7368671;32;20594;-56
2023/07/12 20:19:18;;;;;;;8.13;1.45;;;19.70;99.90;;;;;;7379877;32;20173;-57
2023/07/12 20:23:21;;;;;;;5.20;1.40;;;19.40;99.90;;;;;;7373586;32;20099;-55
2023/07/12 20:27:23;;;;;;;4.55;1.23;;;19.20;99.90;;;;;;7380247;32;20158;-56
2023/07/12 20:31:25;;;;;;;4.22;1.48;;;19.10;99.90;;;;;;7380132;32;20446;-56
2023/07/12 20:35:27;;;;;;;4.82;1.52;;;18.90;99.90;;;;;;7376145;32;20129;-55
2023/07/12 20:39:29;;;;;;;4.22;1.20;;;18.80;99.90;;;;;;7371369;32;20126;-56
2023/07/12 20:43:31;;;;;;;6.10;1.40;;;18.60;99.90;;;;;;7372683;32;20190;-56
2023/07/12 20:47:33;;;;;;;8.68;1.50;;;18.40;99.90;;;;;;7375071;32;20115;-55
2023/07/12 20:51:36;;;;;;;8.43;1.70;;;18.30;99.90;;;;;;7368728;32;20133;-56
2023/07/12 20:55:38;;;;;;;4.05;2.10;;;18.10;99.90;;;;;;7368015;32;20114;-56
2023/07/12 20:59:40;;;;;;;4.20;1.80;;;18.00;99.90;;;;;;7379052;32;20240;-56
2023/07/12 21:03:42;;;;;;;6.50;2.00;;;17.70;99.90;;;;;;7371255;32;20156;-56
2023/07/12 21:07:45;;;;;;;5.15;1.87;;;17.60;99.90;;;;;;7374548;32;20152;-55
2023/07/12 21:11:47;;;;;;;11.38;1.80;;;17.50;99.90;;;;;;7368225;32;20141;-55
2023/07/12 21:15:53;;;;;;;8.95;1.65;;;17.40;99.90;;;;;;7374840;32;20099;-55